ABY419 OMAA-OMDB
Flight info
| Callsign | ABY419 |
|---|---|
| Flight time | 0h 22m |
| Altitude | 9000 |
| Route | LORID |
| Aircraft | A21N/M-SDE2E3FGHIRWXY/LB1 |
Departure
| Time | 2026-04-23 21:20 |
|---|---|
| Airport | Zayed International Airport (OMAA) |
Arrival
| Time | 2026-04-23 21:42 |
|---|---|
| Airport | Dubai International Airport (OMDB) |
| Time | Latitude | Longitude | Altitude | Speed | Heading |
|---|---|---|---|---|---|
| 2026-04-23 20:58 | 24.44706 | 54.64033 | 91 ft | 0 kts | 216° |
| 2026-04-23 21:09 | 24.44716 | 54.64041 | 91 ft | 2 kts | 216° |
| 2026-04-23 21:09 | 24.44728 | 54.64051 | 91 ft | 2 kts | 216° |
| 2026-04-23 21:09 | 24.44740 | 54.64060 | 91 ft | 2 kts | 216° |
| 2026-04-23 21:09 | 24.44753 | 54.64068 | 91 ft | 2 kts | 186° |
| 2026-04-23 21:10 | 24.44768 | 54.64067 | 91 ft | 2 kts | 161° |
| 2026-04-23 21:10 | 24.44781 | 54.64059 | 91 ft | 2 kts | 133° |
| 2026-04-23 21:10 | 24.44790 | 54.64045 | 91 ft | 2 kts | 124° |
| 2026-04-23 21:10 | 24.44795 | 54.64037 | 91 ft | 2 kts | 129° |
| 2026-04-23 21:11 | 24.44803 | 54.64024 | 91 ft | 2 kts | 109° |
| 2026-04-23 21:11 | 24.44806 | 54.64008 | 91 ft | 1 kts | 96° |
| 2026-04-23 21:11 | 24.44807 | 54.64006 | 91 ft | 0 kts | 94° |
| 2026-04-23 21:11 | 24.44807 | 54.64000 | 91 ft | 0 kts | 92° |
| 2026-04-23 21:12 | 24.44807 | 54.63999 | 91 ft | 0 kts | 92° |
| 2026-04-23 21:13 | 24.44807 | 54.64001 | 91 ft | 0 kts | 92° |
| 2026-04-23 21:13 | 24.44806 | 54.64012 | 91 ft | 1 kts | 98° |
| 2026-04-23 21:14 | 24.44787 | 54.64046 | 91 ft | 11 kts | 123° |
| 2026-04-23 21:14 | 24.44717 | 54.64122 | 91 ft | 15 kts | 172° |
| 2026-04-23 21:14 | 24.44619 | 54.64068 | 91 ft | 18 kts | 219° |
| 2026-04-23 21:14 | 24.44529 | 54.63990 | 91 ft | 12 kts | 218° |
| 2026-04-23 21:15 | 24.44442 | 54.63987 | 91 ft | 15 kts | 125° |
| 2026-04-23 21:15 | 24.44356 | 54.64104 | 91 ft | 23 kts | 126° |
| 2026-04-23 21:15 | 24.44250 | 54.64258 | 91 ft | 26 kts | 127° |
| 2026-04-23 21:15 | 24.44122 | 54.64435 | 91 ft | 32 kts | 128° |
| 2026-04-23 21:16 | 24.43971 | 54.64648 | 91 ft | 37 kts | 127° |
| 2026-04-23 21:16 | 24.43816 | 54.64870 | 91 ft | 38 kts | 127° |
| 2026-04-23 21:16 | 24.43659 | 54.65090 | 91 ft | 36 kts | 129° |
| 2026-04-23 21:16 | 24.43515 | 54.65291 | 91 ft | 29 kts | 129° |
| 2026-04-23 21:17 | 24.43380 | 54.65484 | 91 ft | 31 kts | 128° |
| 2026-04-23 21:17 | 24.43232 | 54.65693 | 91 ft | 37 kts | 127° |
| 2026-04-23 21:17 | 24.43069 | 54.65935 | 91 ft | 38 kts | 126° |
| 2026-04-23 21:17 | 24.42901 | 54.66155 | 91 ft | 36 kts | 128° |
| 2026-04-23 21:18 | 24.42754 | 54.66366 | 91 ft | 33 kts | 127° |
| 2026-04-23 21:18 | 24.42615 | 54.66560 | 91 ft | 31 kts | 128° |
| 2026-04-23 21:18 | 24.42510 | 54.66708 | 91 ft | 13 kts | 128° |
| 2026-04-23 21:18 | 24.42439 | 54.66769 | 91 ft | 13 kts | 181° |
| 2026-04-23 21:19 | 24.42363 | 54.66717 | 91 ft | 13 kts | 221° |
| 2026-04-23 21:19 | 24.42291 | 54.66649 | 91 ft | 14 kts | 221° |
| 2026-04-23 21:19 | 24.42272 | 54.66573 | 91 ft | 3 kts | 308° |
| 2026-04-23 21:19 | 24.42326 | 54.66499 | 91 ft | 40 kts | 308° |
| 2026-04-23 21:20 | 24.42674 | 54.66028 | 91 ft | 114 kts | 310° |
| 2026-04-23 21:20 | 24.43265 | 54.65148 | 118 ft | 167 kts | 309° |
| 2026-04-23 21:20 | 24.44000 | 54.64117 | 573 ft | 179 kts | 310° |
| 2026-04-23 21:20 | 24.44795 | 54.63011 | 1128 ft | 192 kts | 311° |
| 2026-04-23 21:21 | 24.45654 | 54.61814 | 1735 ft | 206 kts | 313° |
| 2026-04-23 21:21 | 24.46560 | 54.60561 | 2399 ft | 218 kts | 316° |
| 2026-04-23 21:21 | 24.47833 | 54.59634 | 2946 ft | 229 kts | 351° |
| 2026-04-23 21:21 | 24.49430 | 54.59672 | 3672 ft | 235 kts | 11° |
| 2026-04-23 21:22 | 24.51045 | 54.59999 | 4443 ft | 243 kts | 11° |
| 2026-04-23 21:22 | 24.52737 | 54.60326 | 5186 ft | 252 kts | 9° |
| 2026-04-23 21:22 | 24.54496 | 54.60617 | 5918 ft | 260 kts | 7° |
| 2026-04-23 21:22 | 24.56314 | 54.60878 | 6627 ft | 268 kts | 6° |
| 2026-04-23 21:23 | 24.58172 | 54.61117 | 7353 ft | 273 kts | 5° |
| 2026-04-23 21:23 | 24.60062 | 54.61344 | 8069 ft | 276 kts | 5° |
| 2026-04-23 21:23 | 24.61996 | 54.61569 | 8862 ft | 287 kts | 5° |
| 2026-04-23 21:23 | 24.64052 | 54.61805 | 9514 ft | 307 kts | 4° |
| 2026-04-23 21:24 | 24.66266 | 54.62054 | 9903 ft | 335 kts | 4° |
| 2026-04-23 21:24 | 24.68728 | 54.62332 | 9996 ft | 373 kts | 5° |
| 2026-04-23 21:24 | 24.71402 | 54.62636 | 9984 ft | 393 kts | 5° |
| 2026-04-23 21:24 | 24.74158 | 54.62952 | 9984 ft | 401 kts | 5° |
| 2026-04-23 21:25 | 24.76946 | 54.63272 | 9981 ft | 402 kts | 5° |
| 2026-04-23 21:25 | 24.79767 | 54.63594 | 9981 ft | 402 kts | 5° |
| 2026-04-23 21:25 | 24.82548 | 54.63911 | 9976 ft | 402 kts | 5° |
| 2026-04-23 21:25 | 24.85340 | 54.64230 | 9975 ft | 403 kts | 5° |
| 2026-04-23 21:26 | 24.88093 | 54.64544 | 9974 ft | 402 kts | 5° |
| 2026-04-23 21:26 | 24.90894 | 54.64915 | 9970 ft | 402 kts | 9° |
| 2026-04-23 21:26 | 24.93584 | 54.65803 | 9966 ft | 404 kts | 22° |
| 2026-04-23 21:26 | 24.96065 | 54.67297 | 9974 ft | 405 kts | 33° |
| 2026-04-23 21:27 | 24.98352 | 54.69058 | 9972 ft | 405 kts | 36° |
| 2026-04-23 21:27 | 25.00654 | 54.70908 | 9973 ft | 405 kts | 36° |
| 2026-04-23 21:27 | 25.02925 | 54.72730 | 9975 ft | 405 kts | 36° |
| 2026-04-23 21:27 | 25.05203 | 54.74538 | 9974 ft | 406 kts | 35° |
| 2026-04-23 21:28 | 25.07515 | 54.76358 | 9973 ft | 406 kts | 35° |
| 2026-04-23 21:28 | 25.09821 | 54.78165 | 9977 ft | 406 kts | 35° |
| 2026-04-23 21:28 | 25.12111 | 54.79960 | 9975 ft | 406 kts | 35° |
| 2026-04-23 21:28 | 25.14435 | 54.81786 | 9974 ft | 406 kts | 36° |
| 2026-04-23 21:29 | 25.16652 | 54.83681 | 9976 ft | 407 kts | 39° |
| 2026-04-23 21:29 | 25.18834 | 54.85690 | 9974 ft | 407 kts | 40° |
| 2026-04-23 21:29 | 25.20986 | 54.87706 | 9974 ft | 407 kts | 40° |
| 2026-04-23 21:29 | 25.23171 | 54.89754 | 9974 ft | 408 kts | 40° |
| 2026-04-23 21:30 | 25.25308 | 54.91752 | 9975 ft | 408 kts | 40° |
| 2026-04-23 21:30 | 25.27416 | 54.93875 | 9972 ft | 408 kts | 46° |
| 2026-04-23 21:30 | 25.29176 | 54.96349 | 9973 ft | 407 kts | 57° |
| 2026-04-23 21:30 | 25.30524 | 54.99070 | 9970 ft | 407 kts | 65° |
| 2026-04-23 21:31 | 25.31726 | 55.01918 | 9975 ft | 407 kts | 66° |
| 2026-04-23 21:31 | 25.32885 | 55.04729 | 9966 ft | 407 kts | 66° |
| 2026-04-23 21:31 | 25.34071 | 55.07590 | 9959 ft | 407 kts | 67° |
| 2026-04-23 21:31 | 25.34780 | 55.10582 | 9892 ft | 402 kts | 88° |
| 2026-04-23 21:32 | 25.34448 | 55.13562 | 9496 ft | 391 kts | 110° |
| 2026-04-23 21:32 | 25.33169 | 55.16168 | 8799 ft | 384 kts | 131° |
| 2026-04-23 21:32 | 25.31387 | 55.18311 | 8280 ft | 378 kts | 136° |
| 2026-04-23 21:32 | 25.29564 | 55.20420 | 8022 ft | 379 kts | 135° |
| 2026-04-23 21:33 | 25.27764 | 55.22551 | 8001 ft | 380 kts | 134° |
| 2026-04-23 21:33 | 25.25971 | 55.24723 | 7993 ft | 379 kts | 134° |
| 2026-04-23 21:33 | 25.24213 | 55.26875 | 7781 ft | 374 kts | 134° |
| 2026-04-23 21:33 | 25.22481 | 55.28997 | 7181 ft | 372 kts | 134° |
| 2026-04-23 21:34 | 25.20764 | 55.31099 | 6563 ft | 371 kts | 133° |
| 2026-04-23 21:34 | 25.19059 | 55.33208 | 5987 ft | 368 kts | 131° |
| 2026-04-23 21:34 | 25.17585 | 55.35527 | 5408 ft | 366 kts | 123° |
| 2026-04-23 21:34 | 25.16251 | 55.37895 | 4855 ft | 362 kts | 122° |
| 2026-04-23 21:35 | 25.14957 | 55.40224 | 4277 ft | 360 kts | 121° |
| 2026-04-23 21:35 | 25.13652 | 55.42560 | 3751 ft | 355 kts | 121° |
| 2026-04-23 21:35 | 25.12351 | 55.44873 | 3225 ft | 351 kts | 120° |
| 2026-04-23 21:35 | 25.11077 | 55.47129 | 2689 ft | 347 kts | 120° |
| 2026-04-23 21:36 | 25.08623 | 55.51535 | 2117 ft | 324 kts | 119° |
| 2026-04-23 21:36 | 25.07576 | 55.53665 | 2002 ft | 306 kts | 107° |
| 2026-04-23 21:36 | 25.07315 | 55.55891 | 1994 ft | 284 kts | 82° |
| 2026-04-23 21:37 | 25.07935 | 55.57848 | 1990 ft | 262 kts | 54° |
| 2026-04-23 21:37 | 25.09210 | 55.59124 | 1987 ft | 243 kts | 25° |
| 2026-04-23 21:37 | 25.10808 | 55.59478 | 1983 ft | 226 kts | 353° |
| 2026-04-23 21:37 | 25.12223 | 55.58882 | 1998 ft | 218 kts | 327° |
| 2026-04-23 21:38 | 25.13344 | 55.57744 | 2006 ft | 219 kts | 311° |
| 2026-04-23 21:38 | 25.14214 | 55.56417 | 1986 ft | 206 kts | 305° |
| 2026-04-23 21:38 | 25.14951 | 55.55123 | 1976 ft | 193 kts | 304° |
| 2026-04-23 21:38 | 25.15646 | 55.53859 | 1992 ft | 193 kts | 304° |
| 2026-04-23 21:39 | 25.16343 | 55.52586 | 1998 ft | 193 kts | 304° |
| 2026-04-23 21:39 | 25.17038 | 55.51322 | 2002 ft | 194 kts | 304° |
| 2026-04-23 21:39 | 25.17746 | 55.50041 | 2002 ft | 194 kts | 304° |
| 2026-04-23 21:39 | 25.18466 | 55.48740 | 1886 ft | 203 kts | 304° |
| 2026-04-23 21:40 | 25.19161 | 55.47479 | 1686 ft | 183 kts | 304° |
| 2026-04-23 21:40 | 25.19812 | 55.46302 | 1444 ft | 179 kts | 304° |
| 2026-04-23 21:40 | 25.20453 | 55.45147 | 1222 ft | 168 kts | 304° |
| 2026-04-23 21:40 | 25.21033 | 55.44098 | 973 ft | 153 kts | 304° |
| 2026-04-23 21:41 | 25.21572 | 55.43126 | 778 ft | 146 kts | 303° |
| 2026-04-23 21:41 | 25.22109 | 55.42167 | 628 ft | 146 kts | 303° |
| 2026-04-23 21:41 | 25.22618 | 55.41208 | 488 ft | 146 kts | 302° |
| 2026-04-23 21:41 | 25.23156 | 55.40250 | 251 ft | 145 kts | 304° |
| 2026-04-23 21:42 | 25.23689 | 55.39310 | 87 ft | 145 kts | 303° |
| 2026-04-23 21:42 | 25.24180 | 55.38429 | 55 ft | 116 kts | 300° |
| 2026-04-23 21:42 | 25.24527 | 55.37806 | 51 ft | 78 kts | 301° |
| 2026-04-23 21:42 | 25.24738 | 55.37420 | 49 ft | 29 kts | 296° |
| 2026-04-23 21:43 | 25.24783 | 55.37214 | 46 ft | 23 kts | 276° |
| 2026-04-23 21:43 | 25.24785 | 55.37146 | 45 ft | 6 kts | 271° |
| 2026-04-23 21:43 | 25.24786 | 55.37090 | 46 ft | 7 kts | 271° |
| 2026-04-23 21:43 | 25.24788 | 55.37026 | 45 ft | 9 kts | 271° |
| 2026-04-23 21:44 | 25.24802 | 55.36953 | 45 ft | 10 kts | 292° |
| 2026-04-23 21:44 | 25.24842 | 55.36867 | 46 ft | 16 kts | 297° |
| 2026-04-23 21:44 | 25.24878 | 55.36723 | 45 ft | 23 kts | 283° |
| 2026-04-23 21:44 | 25.24958 | 55.36542 | 43 ft | 29 kts | 302° |
| 2026-04-23 21:45 | 25.25074 | 55.36337 | 33 ft | 28 kts | 300° |
| 2026-04-23 21:45 | 25.25168 | 55.36165 | 39 ft | 24 kts | 301° |
| 2026-04-23 21:45 | 25.25259 | 55.36003 | 34 ft | 25 kts | 302° |
| 2026-04-23 21:45 | 25.25298 | 55.35932 | 35 ft | 0 kts | 301° |
| 2026-04-23 21:46 | 25.25299 | 55.35930 | 35 ft | 2 kts | 302° |
| 2026-04-23 21:46 | 25.25333 | 55.35870 | 36 ft | 16 kts | 302° |
| 2026-04-23 21:46 | 25.25417 | 55.35718 | 34 ft | 26 kts | 299° |
| 2026-04-23 21:47 | 25.25514 | 55.35541 | 29 ft | 28 kts | 302° |
| 2026-04-23 21:47 | 25.25616 | 55.35358 | 31 ft | 27 kts | 300° |
| 2026-04-23 21:47 | 25.25706 | 55.35194 | 30 ft | 16 kts | 302° |
| 2026-04-23 21:47 | 25.25772 | 55.35078 | 30 ft | 18 kts | 302° |
| 2026-04-23 21:48 | 25.25839 | 55.34955 | 30 ft | 19 kts | 301° |
| 2026-04-23 21:48 | 25.25913 | 55.34823 | 29 ft | 20 kts | 302° |
| 2026-04-23 21:48 | 25.25989 | 55.34679 | 27 ft | 22 kts | 300° |
| 2026-04-23 21:48 | 25.26068 | 55.34535 | 26 ft | 21 kts | 302° |
| 2026-04-23 21:49 | 25.26146 | 55.34394 | 24 ft | 21 kts | 301° |
| 2026-04-23 21:49 | 25.26183 | 55.34304 | 23 ft | 6 kts | 242° |
| 2026-04-23 21:49 | 25.26151 | 55.34278 | 23 ft | 5 kts | 211° |
| 2026-04-23 21:49 | 25.26113 | 55.34253 | 23 ft | 6 kts | 211° |
| 2026-04-23 21:50 | 25.26072 | 55.34225 | 23 ft | 7 kts | 211° |
| 2026-04-23 21:50 | 25.26033 | 55.34199 | 23 ft | 3 kts | 211° |
| 2026-04-23 21:50 | 25.26032 | 55.34199 | 23 ft | 0 kts | 211° |